Jodhpur, Jodhpur Airport (VIJO)

NameJodhpur Airport
CityJodhpur
CountryIndia
ICAOVIJO
IATAJDH
Altitude219 m
CoordinatesGoogle Map
Live Air TrafficLiveATC.net
METARVIJO 260400Z 26003KT 6000 FEW015 SCT100 28/25 Q1003 NOSIG
2017-08-26 04:00:00 Wind: West-Southwest (260°) 1.54 m/s - Visibility: 6000 m - Temperature: 28 °C - Dew point: 25 °C - Humidity: 83.8% - Pressure: 1003 hPa
Statistics

The table below shows the detailed information of all flights to/from Jodhpur, Jodhpur Airport (VIJO).